Time;durP1;ratioP1;P1;durP2;ratioP2;P2;SDS_P1;SDS_P2;PMS_P1;PMS_P2;Temp;Humidity;BMP_temperature;BMP_pressure;BME280_temperature;BME280_humidity;BME280_pressure;Samples;Min_cycle;Max_cycle;Signal;HPM_P1;HPM_P2
2022/04/13 00:01:22;;;;;;;59.85;56.10;;;;;;;3.85;100.00;101549.44;4956230;28;20109;-91
2022/04/13 00:03:50;;;;;;;76.13;68.45;;;;;;;3.99;100.00;101553.38;4956886;29;20098;-91
2022/04/13 00:06:17;;;;;;;87.97;81.63;;;;;;;3.79;100.00;101559.69;4956075;28;20122;-91
2022/04/13 00:08:44;;;;;;;70.03;62.70;;;;;;;3.79;100.00;101560.50;4954450;28;20062;-89
2022/04/13 00:11:13;;;;;;;99.18;81.38;;;;;;;3.88;100.00;101559.66;4956370;29;20106;-91
2022/04/13 00:13:40;;;;;;;68.57;61.35;;;;;;;3.80;100.00;101553.44;4956132;29;20049;-90
2022/04/13 00:16:07;;;;;;;69.03;63.38;;;;;;;3.87;100.00;101551.91;4956458;29;20046;-90
2022/04/13 00:18:34;;;;;;;68.07;62.92;;;;;;;3.80;100.00;101549.00;4956305;29;20047;-91
2022/04/13 00:21:02;;;;;;;63.90;59.55;;;;;;;3.93;100.00;101556.59;4956727;29;20429;-90
2022/04/13 00:23:29;;;;;;;66.20;61.78;;;;;;;4.07;100.00;101550.06;4956598;29;20051;-90
2022/04/13 00:25:56;;;;;;;64.05;60.00;;;;;;;4.09;100.00;101550.75;4955695;28;20492;-90
2022/04/13 00:28:23;;;;;;;68.60;64.50;;;;;;;3.98;100.00;101537.78;4956165;28;20054;-90
2022/04/13 00:30:50;;;;;;;71.45;67.05;;;;;;;4.00;100.00;101541.09;4956018;29;20110;-90
2022/04/13 00:33:17;;;;;;;69.28;64.78;;;;;;;3.98;100.00;101545.66;4955940;29;20051;-90
2022/04/13 00:35:43;;;;;;;73.07;67.10;;;;;;;4.03;100.00;101539.00;4955577;28;20051;-89
2022/04/13 00:38:11;;;;;;;54.55;50.95;;;;;;;4.12;100.00;101537.31;4956258;28;20122;-91
2022/04/13 00:40:40;;;;;;;52.67;49.28;;;;;;;4.15;100.00;101534.41;4956548;29;20051;-91
2022/04/13 00:43:07;;;;;;;50.45;47.00;;;;;;;3.93;100.00;101535.56;4955831;29;20083;-91
2022/04/13 00:45:34;;;;;;;39.17;36.85;;;;;;;3.95;100.00;101525.75;4955406;29;20453;-91
2022/04/13 00:48:03;;;;;;;45.08;42.40;;;;;;;4.18;100.00;101528.84;4956477;29;20055;-91
2022/04/13 00:50:30;;;;;;;44.17;41.55;;;;;;;4.15;100.00;101531.78;4955367;28;20504;-90
2022/04/13 00:52:59;;;;;;;57.92;53.42;;;;;;;4.04;100.00;101524.88;4955629;29;20055;-90
2022/04/13 00:55:30;;;;;;;57.42;53.05;;;;;;;4.08;100.00;101517.53;4955412;29;20503;-91
2022/04/13 00:57:59;;;;;;;47.25;44.40;;;;;;;4.11;100.00;101510.22;4955260;28;20480;-91
2022/04/13 01:00:26;;;;;;;48.13;44.95;;;;;;;4.12;100.00;101521.56;4955494;29;20559;-89
2022/04/13 01:02:54;;;;;;;44.15;41.47;;;;;;;4.22;100.00;101518.88;4955948;29;20114;-90
2022/04/13 01:05:22;;;;;;;53.63;50.05;;;;;;;4.14;100.00;101514.31;4955621;29;20102;-90
2022/04/13 01:07:49;;;;;;;47.97;45.22;;;;;;;4.12;100.00;101511.84;4954328;28;20047;-90
2022/04/13 01:10:16;;;;;;;46.65;44.13;;;;;;;3.79;100.00;101515.00;4955470;29;20055;-91
2022/04/13 01:12:44;;;;;;;50.58;47.58;;;;;;;3.95;100.00;101517.03;4951755;29;20051;-90
2022/04/13 01:15:11;;;;;;;40.45;38.17;;;;;;;3.83;100.00;101516.38;4946183;28;20070;-90
2022/04/13 01:17:40;;;;;;;40.22;37.83;;;;;;;3.76;100.00;101510.84;4954355;29;20054;-90
2022/04/13 01:20:10;;;;;;;41.10;38.40;;;;;;;4.01;100.00;101516.47;4949407;28;20090;-91
2022/04/13 01:22:39;;;;;;;40.28;37.63;;;;;;;4.07;100.00;101513.25;4955014;29;20051;-91
2022/04/13 01:25:06;;;;;;;41.72;38.88;;;;;;;3.96;100.00;101510.78;4955012;29;20460;-90
2022/04/13 01:27:33;;;;;;;48.60;45.53;;;;;;;3.96;100.00;101508.16;4954732;29;20051;-90
2022/04/13 01:30:00;;;;;;;46.58;43.78;;;;;;;4.02;100.00;101510.22;4951394;28;20573;-91
2022/04/13 01:32:27;;;;;;;42.67;40.17;;;;;;;3.92;100.00;101515.50;4955112;29;20497;-90
2022/04/13 01:34:54;;;;;;;40.28;37.67;;;;;;;4.22;100.00;101509.19;4954693;28;20477;-90
2022/04/13 01:37:22;;;;;;;46.58;43.67;;;;;;;4.27;100.00;101516.66;4954592;28;20087;-90
2022/04/13 01:39:50;;;;;;;45.65;42.67;;;;;;;4.27;100.00;101525.38;4954959;29;20106;-90
2022/04/13 01:42:17;;;;;;;51.90;48.10;;;;;;;3.70;100.00;101511.41;4954832;29;20069;-90
2022/04/13 01:44:44;;;;;;;44.50;41.75;;;;;;;3.83;100.00;101514.56;4954555;29;20055;-91
2022/04/13 01:47:11;;;;;;;50.33;46.85;;;;;;;4.11;100.00;101518.09;4955777;29;20051;-91
2022/04/13 01:49:38;;;;;;;52.15;48.85;;;;;;;4.08;100.00;101512.28;4954677;29;20398;-90
2022/04/13 01:52:06;;;;;;;48.47;45.58;;;;;;;4.20;100.00;101520.81;4954574;29;20051;-91
2022/04/13 01:54:33;;;;;;;52.58;49.53;;;;;;;4.19;100.00;101548.91;4945984;28;20062;-91
2022/04/13 01:57:02;;;;;;;50.40;47.53;;;;;;;4.33;100.00;101532.66;4954492;29;20126;-91
2022/04/13 01:59:29;;;;;;;49.60;46.67;;;;;;;4.35;100.00;101537.78;4954519;28;20047;-91
2022/04/13 02:01:56;;;;;;;54.65;51.53;;;;;;;4.27;100.00;101540.31;5096791;23;20069;-90
2022/04/13 02:04:25;;;;;;;52.40;49.33;;;;;;;4.24;100.00;101540.59;5012126;28;20100;-90
2022/04/13 02:06:52;;;;;;;51.72;48.58;;;;;;;4.28;100.00;101536.72;5001469;28;20133;-90
2022/04/13 02:09:20;;;;;;;56.03;52.92;;;;;;;4.39;100.00;101541.78;5011790;28;20050;-90
2022/04/13 02:11:48;;;;;;;56.72;53.45;;;;;;;4.38;100.00;101541.91;5012415;28;20434;-90
2022/04/13 02:14:16;;;;;;;46.65;43.65;;;;;;;4.38;100.00;101547.19;5011994;28;20050;-90
2022/04/13 02:16:43;;;;;;;59.42;55.63;;;;;;;4.09;100.00;101542.88;5012898;28;20046;-90
2022/04/13 02:19:15;;;;;;;58.53;54.20;;;;;;;4.26;100.00;101547.34;5011911;28;20038;-90
2022/04/13 02:21:42;;;;;;;51.72;48.53;;;;;;;4.29;100.00;101554.13;5012154;28;20436;-90
2022/04/13 02:24:09;;;;;;;45.45;41.85;;;;;;;3.99;100.00;101547.31;5012273;28;20108;-91
2022/04/13 02:26:36;;;;;;;45.97;42.15;;;;;;;3.83;100.00;101548.72;5012022;28;20116;-90
2022/04/13 02:29:03;;;;;;;46.42;42.85;;;;;;;3.95;100.00;101549.41;5009993;28;20522;-88
2022/04/13 02:31:34;;;;;;;51.80;48.25;;;;;;;4.01;100.00;101550.63;5012649;28;20049;-88
2022/04/13 02:34:04;;;;;;;52.20;48.33;;;;;;;3.76;100.00;101542.38;5012342;28;20050;-89
2022/04/13 02:36:33;;;;;;;43.78;40.35;;;;;;;3.65;100.00;101548.63;5011940;28;20046;-88
2022/04/13 02:39:02;;;;;;;43.58;39.55;;;;;;;3.72;100.00;101543.63;4999705;28;20103;-89
2022/04/13 02:41:29;;;;;;;49.65;45.75;;;;;;;3.43;100.00;101541.03;5012002;28;20481;-89
2022/04/13 02:43:56;;;;;;;53.65;49.22;;;;;;;3.71;100.00;101549.03;5011983;28;20054;-90
2022/04/13 02:46:23;;;;;;;52.80;48.22;;;;;;;3.64;100.00;101541.72;5011770;28;20057;-89
2022/04/13 02:48:51;;;;;;;48.78;44.92;;;;;;;3.21;100.00;101547.41;5011711;28;20072;-88
2022/04/13 02:51:18;;;;;;;48.28;43.95;;;;;;;3.45;100.00;101549.63;5011826;28;20046;-89
2022/04/13 02:53:44;;;;;;;48.45;44.03;;;;;;;3.54;100.00;101553.19;5011936;28;20053;-89
2022/04/13 02:56:11;;;;;;;53.47;48.58;;;;;;;3.35;100.00;101554.03;5011916;28;20494;-88
2022/04/13 02:58:38;;;;;;;56.83;51.15;;;;;;;3.16;100.00;101555.69;5011877;28;20057;-91
2022/04/13 03:01:06;;;;;;;53.88;48.30;;;;;;;2.82;100.00;101559.66;5011656;28;20061;-91
2022/04/13 03:03:33;;;;;;;52.00;46.90;;;;;;;2.58;100.00;101552.13;5011732;28;20089;-91
2022/04/13 03:06:01;;;;;;;55.78;50.35;;;;;;;2.46;100.00;101559.25;5012092;28;20556;-90
2022/04/13 03:08:28;;;;;;;53.17;47.83;;;;;;;2.73;100.00;101558.66;5011636;28;20502;-88
2022/04/13 03:10:55;;;;;;;47.35;42.72;;;;;;;2.75;100.00;101575.94;5011700;28;20054;-88
2022/04/13 03:13:22;;;;;;;54.63;49.47;;;;;;;2.43;100.00;101573.47;5011906;28;20119;-90
2022/04/13 03:15:49;;;;;;;55.75;50.58;;;;;;;2.84;100.00;101578.69;5011655;28;20108;-91
2022/04/13 03:18:15;;;;;;;61.65;56.33;;;;;;;2.60;100.00;101581.66;5012202;28;20120;-91
2022/04/13 03:20:45;;;;;;;84.90;78.07;;;;;;;2.69;100.00;101586.09;5011548;28;20054;-91
2022/04/13 03:23:13;;;;;;;88.60;81.00;;;;;;;2.69;100.00;101586.09;5011705;28;20069;-89
2022/04/13 03:25:40;;;;;;;80.13;72.45;;;;;;;2.64;100.00;101588.31;5011531;28;20103;-88
2022/04/13 03:28:07;;;;;;;81.72;74.68;;;;;;;2.74;100.00;101589.16;5011535;28;20061;-89
2022/04/13 03:30:33;;;;;;;85.22;77.30;;;;;;;2.68;100.00;101595.75;5012161;28;20046;-89
2022/04/13 03:33:00;;;;;;;77.25;69.75;;;;;;;2.45;100.00;101603.00;5015947;28;20121;-89
2022/04/13 03:35:27;;;;;;;73.60;66.13;;;;;;;2.42;100.00;101600.66;5015416;28;20050;-88
2022/04/13 03:37:54;;;;;;;73.60;66.10;;;;;;;2.62;100.00;101611.22;5014684;28;20046;-88
2022/04/13 03:40:23;;;;;;;75.35;67.70;;;;;;;2.52;100.00;101606.75;5014908;28;20485;-89
2022/04/13 03:42:52;;;;;;;65.55;58.90;;;;;;;2.51;100.00;101618.22;5014882;28;20050;-89
2022/04/13 03:45:19;;;;;;;74.85;67.22;;;;;;;2.37;100.00;101612.50;5015108;28;20396;-89
2022/04/13 03:47:46;;;;;;;66.85;61.33;;;;;;;2.37;100.00;101623.81;5015669;28;20131;-89
2022/04/13 03:50:13;;;;;;;73.32;66.25;;;;;;;2.48;100.00;101628.97;5014991;28;20084;-88
2022/04/13 03:52:40;;;;;;;70.03;63.28;;;;;;;2.60;100.00;101627.06;5014531;28;20473;-88
2022/04/13 03:55:09;;;;;;;55.25;49.80;;;;;;;2.20;100.00;101625.22;5014720;28;20115;-88
2022/04/13 03:57:37;;;;;;;53.65;48.40;;;;;;;2.31;100.00;101626.13;5014556;28;20049;-89
2022/04/13 04:00:05;;;;;;;55.75;50.22;;;;;;;2.39;100.00;101640.25;5014715;28;20061;-89
2022/04/13 04:02:33;;;;;;;61.20;54.97;;;;;;;2.65;100.00;101635.38;4995565;28;20054;-89
2022/04/13 04:05:02;;;;;;;63.28;56.70;;;;;;;2.84;100.00;101641.66;5008222;28;20084;-89
2022/04/13 04:07:29;;;;;;;65.50;58.83;;;;;;;2.74;100.00;101642.47;5013531;28;20057;-89
2022/04/13 04:09:56;;;;;;;65.97;59.45;;;;;;;2.67;100.00;101640.50;5014457;28;20050;-89
2022/04/13 04:12:22;;;;;;;65.07;58.33;;;;;;;2.81;100.00;101644.56;5014596;28;20411;-88
2022/04/13 04:14:51;;;;;;;63.88;57.67;;;;;;;2.71;100.00;101649.78;5014314;28;20070;-89
2022/04/13 04:17:17;;;;;;;64.15;57.42;;;;;;;2.95;100.00;101654.69;5015302;28;20111;-89
2022/04/13 04:19:44;;;;;;;46.83;41.80;;;;;;;3.12;100.00;101656.69;5014163;28;20046;-89
2022/04/13 04:22:13;;;;;;;47.88;42.80;;;;;;;3.41;100.00;101648.84;5014031;28;20052;-89
2022/04/13 04:24:40;;;;;;;49.58;44.22;;;;;;;3.59;100.00;101648.19;5014420;28;20509;-89
2022/04/13 04:27:07;;;;;;;44.65;39.55;;;;;;;3.88;100.00;101653.44;5014079;28;20042;-89
2022/04/13 04:29:35;;;;;;;49.90;43.75;;;;;;;3.81;100.00;101660.22;5013677;28;20057;-88
2022/04/13 04:32:03;;;;;;;48.63;43.65;;;;;;;3.98;100.00;101658.69;5010907;28;20108;-88
2022/04/13 04:34:30;;;;;;;45.10;40.25;;;;;;;4.00;100.00;101664.66;5014278;28;20042;-89
2022/04/13 04:36:57;;;;;;;45.13;40.75;;;;;;;4.06;100.00;101661.47;5014471;28;20045;-88
2022/04/13 04:39:26;;;;;;;44.90;40.30;;;;;;;4.16;100.00;101669.34;5013916;28;20107;-88
2022/04/13 04:41:53;;;;;;;43.15;38.60;;;;;;;4.27;100.00;101672.63;5013298;28;20053;-88
2022/04/13 04:44:20;;;;;;;44.03;39.45;;;;;;;4.69;100.00;101667.00;5014509;28;20065;-88
2022/04/13 04:46:46;;;;;;;42.83;38.38;;;;;;;4.85;100.00;101676.91;5013752;28;20053;-89
2022/04/13 04:49:15;;;;;;;35.08;32.38;;;;;;;5.47;100.00;101675.28;5013395;28;20054;-90
2022/04/13 04:51:44;;;;;;;33.15;30.83;;;;;;;5.90;100.00;101664.97;5013600;28;20053;-89
2022/04/13 04:54:11;;;;;;;34.05;31.45;;;;;;;6.04;100.00;101668.94;5013493;28;20038;-89
2022/04/13 04:56:38;;;;;;;31.58;29.30;;;;;;;6.24;100.00;101665.13;5013449;28;20061;-89
2022/04/13 04:59:05;;;;;;;33.45;31.25;;;;;;;6.29;100.00;101665.47;5014014;28;20093;-89
2022/04/13 05:01:31;;;;;;;34.63;32.53;;;;;;;6.54;100.00;101661.22;5013413;28;20050;-89
2022/04/13 05:03:58;;;;;;;34.72;32.53;;;;;;;6.81;100.00;101668.13;5013370;28;20058;-89
2022/04/13 05:06:31;;;;;;;33.33;30.88;;;;;;;6.82;100.00;101675.03;5013114;28;20050;-89
2022/04/13 05:08:57;;;;;;;35.08;32.67;;;;;;;6.96;100.00;101672.78;5013571;28;20494;-89
2022/04/13 05:11:27;;;;;;;33.58;31.42;;;;;;;6.99;100.00;101683.03;5011857;28;20104;-89
2022/04/13 05:13:54;;;;;;;32.65;30.40;;;;;;;6.96;100.00;101680.69;5003892;28;20115;-89
2022/04/13 05:16:23;;;;;;;34.05;31.75;;;;;;;7.02;100.00;101691.50;5007847;28;20470;-89
2022/04/13 05:18:50;;;;;;;43.90;41.05;;;;;;;7.13;100.00;101693.00;4997930;28;20073;-90
2022/04/13 05:21:17;;;;;;;42.38;39.65;;;;;;;6.99;100.00;101686.53;5013413;28;20050;-89
2022/04/13 05:23:45;;;;;;;42.70;40.30;;;;;;;7.29;100.00;101693.06;5011011;28;20049;-90
2022/04/13 05:26:12;;;;;;;44.20;41.22;;;;;;;7.37;100.00;101688.78;5008597;28;20524;-89
2022/04/13 05:28:39;;;;;;;42.55;39.88;;;;;;;7.37;100.00;101692.25;5011782;28;20108;-89
2022/04/13 05:31:08;;;;;;;41.35;38.88;;;;;;;7.49;100.00;101688.31;5002012;28;20061;-90
2022/04/13 05:33:35;;;;;;;43.90;41.38;;;;;;;7.71;100.00;101683.41;5011215;28;20100;-89
2022/04/13 05:36:03;;;;;;;43.08;40.78;;;;;;;7.86;100.00;101684.41;5012981;28;20099;-89
2022/04/13 05:38:30;;;;;;;35.50;33.20;;;;;;;8.08;100.00;101684.72;5008212;28;20050;-90
2022/04/13 05:40:58;;;;;;;33.38;31.05;;;;;;;8.17;100.00;101687.25;5006244;28;20050;-90
2022/04/13 05:43:25;;;;;;;34.63;32.63;;;;;;;8.18;100.00;101682.75;5010424;28;20045;-89
2022/04/13 05:45:55;;;;;;;33.28;31.42;;;;;;;8.41;100.00;101685.56;5006010;28;20057;-90
2022/04/13 05:48:22;;;;;;;34.95;32.55;;;;;;;8.73;100.00;101695.28;5004424;28;20418;-89
2022/04/13 05:50:50;;;;;;;36.58;34.47;;;;;;;8.67;100.00;101694.13;5012516;28;20549;-88
2022/04/13 05:53:17;;;;;;;35.08;33.10;;;;;;;8.77;100.00;101693.09;5010025;28;20426;-89
2022/04/13 05:55:46;;;;;;;34.08;32.28;;;;;;;8.96;100.00;101698.03;5010817;28;20582;-89
2022/04/13 05:58:14;;;;;;;34.88;32.95;;;;;;;9.02;100.00;101693.88;5002624;28;20490;-88
2022/04/13 06:00:43;;;;;;;34.15;32.22;;;;;;;9.11;100.00;101698.97;5005890;28;20117;-89
2022/04/13 06:03:10;;;;;;;35.47;33.58;;;;;;;9.36;100.00;101690.88;5001285;28;20077;-88
2022/04/13 06:05:38;;;;;;;45.35;43.08;;;;;;;9.81;100.00;101690.09;5011197;28;20115;-88
2022/04/13 06:08:06;;;;;;;36.85;34.88;;;;;;;9.89;96.65;101691.84;5012097;28;20050;-88
2022/04/13 06:10:33;;;;;;;37.40;35.50;;;;;;;9.80;88.95;101693.78;5011613;28;20056;-91
2022/04/13 06:13:00;;;;;;;39.55;37.45;;;;;;;9.93;86.84;101692.34;5018456;28;20058;-89
2022/04/13 06:15:29;;;;;;;41.05;38.95;;;;;;;9.59;85.85;101690.91;5012654;28;20058;-88
2022/04/13 06:17:56;;;;;;;40.88;38.78;;;;;;;9.52;84.19;101695.25;5012971;28;20042;-88
2022/04/13 06:20:23;;;;;;;37.45;35.45;;;;;;;9.50;81.10;101694.59;5012269;28;20073;-87
2022/04/13 06:22:52;;;;;;;39.83;37.72;;;;;;;9.75;81.14;101697.94;5011836;28;20045;-88
2022/04/13 06:25:19;;;;;;;39.75;37.45;;;;;;;9.78;82.40;101702.91;5012387;28;20049;-88
2022/04/13 06:27:51;;;;;;;51.50;48.75;;;;;;;9.79;79.71;101697.41;5012178;28;20148;-88
2022/04/13 06:30:18;;;;;;;51.50;49.00;;;;;;;9.79;77.38;101699.22;5012729;28;20137;-87
2022/04/13 06:32:47;;;;;;;50.58;47.70;;;;;;;10.16;77.89;101698.44;5013480;28;20058;-88
2022/04/13 06:35:16;;;;;;;51.72;49.22;;;;;;;10.21;75.55;101698.72;5009164;28;20073;-89
2022/04/13 06:37:45;;;;;;;55.40;52.67;;;;;;;10.35;75.41;101698.97;5010980;28;20077;-87
2022/04/13 06:40:12;;;;;;;50.40;47.75;;;;;;;10.31;76.10;101701.16;5012033;28;20050;-88
2022/04/13 06:42:40;;;;;;;50.35;47.95;;;;;;;10.36;74.02;101704.13;5010320;28;20049;-88
2022/04/13 06:45:10;;;;;;;55.05;52.35;;;;;;;10.74;81.56;101704.03;5013530;28;20041;-89
2022/04/13 06:47:37;;;;;;;49.38;46.88;;;;;;;11.04;82.46;101704.03;5011449;28;20136;-88
2022/04/13 06:50:06;;;;;;;49.85;47.17;;;;;;;11.09;76.31;101699.00;5010667;28;20120;-88
2022/04/13 06:52:37;;;;;;;59.05;55.88;;;;;;;10.78;74.05;101692.88;5013601;28;20058;-88
2022/04/13 06:55:13;;;;;;;55.88;52.95;;;;;;;10.78;71.54;101694.72;5012369;28;20060;-88
2022/04/13 06:57:54;;;;;;;46.17;43.67;;;;;;;11.24;75.58;101703.28;5007433;28;20052;-87
2022/04/13 07:00:25;;;;;;;51.05;48.45;;;;;;;11.01;71.08;101699.91;5013099;28;20133;-88
2022/04/13 07:02:57;;;;;;;52.63;49.92;;;;;;;10.83;70.64;101713.56;4991963;28;20049;-88
2022/04/13 07:05:30;;;;;;;;;;;;;;;11.00;69.38;101708.91;4988515;28;20065;-87
2022/04/13 07:07:57;;;;;;;52.05;49.30;;;;;;;11.09;70.39;101705.16;4986154;28;19928;-88
2022/04/13 07:10:28;;;;;;;50.33;47.83;;;;;;;10.99;69.47;101710.75;4993088;28;20043;-88
2022/04/13 07:12:57;;;;;;;52.88;50.38;;;;;;;11.42;68.66;101702.06;4998081;28;20057;-88
2022/04/13 07:15:25;;;;;;;51.75;49.15;;;;;;;11.43;68.39;101709.03;4996036;28;20133;-87
2022/04/13 07:17:52;;;;;;;48.70;45.85;;;;;;;11.49;68.05;101704.78;4996769;28;20133;-88
2022/04/13 07:20:19;;;;;;;51.45;48.95;;;;;;;11.86;68.64;101703.78;4995279;28;20054;-88
2022/04/13 07:22:48;;;;;;;49.88;47.38;;;;;;;11.84;65.98;101703.13;4995927;28;20567;-88
2022/04/13 07:25:18;;;;;;;47.80;45.38;;;;;;;12.28;67.79;101702.09;4988971;28;20046;-88
2022/04/13 07:27:47;;;;;;;47.88;45.40;;;;;;;11.71;64.67;101711.81;4995465;28;20051;-90
2022/04/13 07:30:16;;;;;;;47.70;45.08;;;;;;;11.80;63.33;101709.81;4983438;28;20038;-91
2022/04/13 07:32:44;;;;;;;53.13;50.42;;;;;;;11.99;67.12;101706.56;4994232;28;20113;-88
2022/04/13 07:35:11;;;;;;;47.13;44.60;;;;;;;11.97;64.38;101711.25;4990767;28;20085;-88
2022/04/13 07:37:39;;;;;;;45.47;42.88;;;;;;;12.10;65.30;101706.06;4990791;28;20090;-89
2022/04/13 07:40:12;;;;;;;48.33;45.10;;;;;;;12.43;64.07;101700.16;4991756;28;20120;-88
2022/04/13 07:42:39;;;;;;;50.80;47.90;;;;;;;11.97;65.24;101707.78;4998372;28;20049;-89
2022/04/13 07:45:08;;;;;;;46.85;44.55;;;;;;;12.19;61.73;101711.22;5002555;28;20046;-90
2022/04/13 07:47:37;;;;;;;48.20;45.70;;;;;;;11.98;62.40;101706.75;4994437;28;20050;-89
2022/04/13 07:50:11;;;;;;;49.05;46.45;;;;;;;12.17;62.88;101707.97;4995377;28;20484;-89
2022/04/13 07:52:39;;;;;;;54.20;51.45;;;;;;;12.02;62.01;101710.69;4994721;28;20038;-89
2022/04/13 07:55:11;;;;;;;48.13;45.63;;;;;;;12.13;59.04;101708.34;4990974;28;20138;-90
2022/04/13 07:57:39;;;;;;;49.15;46.33;;;;;;;12.22;59.55;101702.84;4997643;28;20515;-90
2022/04/13 08:00:09;;;;;;;38.90;36.92;;;;;;;12.22;58.93;101706.34;4993730;28;20057;-90
2022/04/13 08:02:37;;;;;;;38.13;35.92;;;;;;;12.54;60.92;101699.63;4993037;28;20500;-90
2022/04/13 08:05:05;;;;;;;40.97;38.85;;;;;;;12.67;60.69;101703.38;4994273;28;20579;-91
2022/04/13 08:07:32;;;;;;;39.03;36.88;;;;;;;12.93;60.76;101703.53;4994808;28;20043;-90
2022/04/13 08:10:00;;;;;;;44.30;41.80;;;;;;;12.61;56.65;101700.47;4994426;28;20064;-90
2022/04/13 08:12:33;;;;;;;43.95;41.42;;;;;;;12.67;60.47;101701.53;4994119;28;20080;-88
2022/04/13 08:15:00;;;;;;;48.00;45.30;;;;;;;12.46;57.57;101706.94;4994081;28;20505;-88
2022/04/13 08:17:30;;;;;;;43.85;41.60;;;;;;;12.64;55.85;101709.13;4995739;28;20051;-88
2022/04/13 08:19:57;;;;;;;51.80;48.92;;;;;;;12.60;65.24;101703.34;4992147;28;20129;-88
2022/04/13 08:22:29;;;;;;;52.13;49.28;;;;;;;13.09;60.96;101704.22;4997105;28;20112;-88
2022/04/13 08:24:56;;;;;;;49.20;46.55;;;;;;;12.79;56.61;101707.97;4993743;28;20054;-88
2022/04/13 08:27:23;;;;;;;48.60;46.15;;;;;;;12.64;55.83;101704.59;4993841;28;20038;-90
2022/04/13 08:29:51;;;;;;;45.22;42.85;;;;;;;13.15;58.78;101711.44;4994022;28;20148;-88
2022/04/13 08:32:20;;;;;;;50.38;47.58;;;;;;;13.45;55.68;101707.47;4992656;28;20085;-89
2022/04/13 08:34:52;;;;;;;45.72;43.22;;;;;;;13.35;53.29;101707.03;4993308;28;20053;-88
2022/04/13 08:37:22;;;;;;;46.72;44.20;;;;;;;13.24;54.57;101696.91;4997069;28;20042;-88
2022/04/13 08:39:54;;;;;;;50.80;48.13;;;;;;;13.34;57.58;101692.03;4993763;28;20428;-89
2022/04/13 08:42:46;;;;;;;45.28;42.78;;;;;;;13.63;58.16;101695.41;4993341;28;20054;-88
2022/04/13 08:45:23;;;;;;;44.83;42.37;;;;;;;13.81;54.67;101684.97;4993278;28;20105;-91
2022/04/13 08:47:56;;;;;;;46.55;44.15;;;;;;;14.05;58.08;101688.91;4996036;28;20305;-92
2022/04/13 08:50:27;;;;;;;46.60;43.88;;;;;;;14.00;57.06;101679.84;4993089;28;20043;-90
2022/04/13 08:52:57;;;;;;;45.95;43.25;;;;;;;14.31;56.86;101681.88;4993212;28;20108;-91
2022/04/13 08:55:26;;;;;;;46.20;43.80;;;;;;;14.13;54.39;101685.19;4993133;28;20113;-90
2022/04/13 08:58:00;;;;;;;46.15;43.75;;;;;;;14.42;55.68;101671.38;4993029;28;20050;-89
2022/04/13 09:00:32;;;;;;;46.83;44.22;;;;;;;14.57;53.72;101684.56;4995364;28;20166;-88
2022/04/13 09:03:24;;;;;;;54.83;51.88;;;;;;;14.53;50.63;101679.84;5013557;28;20050;-91
2022/04/13 09:05:54;;;;;;;62.45;59.08;;;;;;;15.39;52.41;101682.19;5009678;28;20474;-88
2022/04/13 09:08:23;;;;;;;59.88;56.85;;;;;;;12.28;48.17;101670.13;5013199;28;20181;-90
2022/04/13 09:10:54;;;;;;;57.95;54.83;;;;;;;13.08;50.83;101676.75;5013084;28;20084;-89
2022/04/13 09:13:24;;;;;;;54.58;51.45;;;;;;;14.73;48.89;101655.72;5005244;28;20108;-88
2022/04/13 09:15:53;;;;;;;55.65;52.85;;;;;;;15.73;49.84;101658.72;5012171;28;20096;-88
2022/04/13 09:18:20;;;;;;;42.08;39.85;;;;;;;14.96;50.99;101655.25;5010745;28;20053;-89
2022/04/13 09:20:47;;;;;;;47.38;44.83;;;;;;;15.06;47.88;101648.38;5013239;28;20549;-89
2022/04/13 09:23:19;;;;;;;43.05;40.75;;;;;;;15.39;49.10;101647.41;5013242;28;20050;-90
2022/04/13 09:25:51;;;;;;;42.47;40.08;;;;;;;15.71;50.69;101648.25;5011165;28;20597;-88
2022/04/13 09:28:18;;;;;;;44.13;41.65;;;;;;;14.99;47.25;101654.81;5010160;28;20037;-89
2022/04/13 09:30:47;;;;;;;42.67;40.45;;;;;;;14.67;47.54;101646.69;5006980;28;20494;-88
2022/04/13 09:33:17;;;;;;;46.97;44.58;;;;;;;13.03;53.95;101644.50;4994446;28;20121;-89
2022/04/13 09:35:44;;;;;;;48.00;45.40;;;;;;;13.88;50.40;101634.22;5012481;28;20050;-89
2022/04/13 09:38:20;;;;;;;45.03;42.63;;;;;;;13.77;50.16;101634.84;5007882;28;20049;-89
2022/04/13 09:40:54;;;;;;;42.58;40.38;;;;;;;14.32;54.14;101624.75;5006575;28;20050;-88
2022/04/13 09:43:23;;;;;;;47.75;45.25;;;;;;;13.73;51.04;101623.75;5011497;28;20053;-89
2022/04/13 09:45:51;;;;;;;43.75;41.47;;;;;;;15.70;52.01;101619.00;5012169;28;20481;-91
2022/04/13 09:48:21;;;;;;;45.17;42.58;;;;;;;16.11;51.01;101618.44;4998184;28;20050;-88
2022/04/13 09:50:50;;;;;;;51.17;48.58;;;;;;;15.55;47.88;101616.59;5005414;28;20061;-88
2022/04/13 09:53:34;;;;;;;48.67;46.13;;;;;;;15.97;45.82;101622.28;5010768;28;20057;-89
2022/04/13 09:56:03;;;;;;;52.78;50.00;;;;;;;17.01;45.16;101619.75;5005567;28;20054;-88
2022/04/13 09:58:30;;;;;;;50.08;47.28;;;;;;;16.45;43.59;101600.16;5007908;28;20065;-89
2022/04/13 10:01:06;;;;;;;51.97;49.38;;;;;;;16.65;43.56;101608.81;5007255;28;20053;-89
2022/04/13 10:03:37;;;;;;;50.38;47.92;;;;;;;15.37;45.02;101613.84;5010287;28;20054;-88
2022/04/13 10:06:10;;;;;;;50.97;48.45;;;;;;;14.77;47.08;101603.47;5002192;28;20054;-88
2022/04/13 10:08:39;;;;;;;49.95;47.25;;;;;;;13.37;48.24;101608.91;5009762;28;20137;-88
2022/04/13 10:11:09;;;;;;;50.38;47.88;;;;;;;16.66;45.13;101609.63;5005420;28;20042;-89
2022/04/13 10:14:00;;;;;;;44.78;42.45;;;;;;;15.66;44.84;101602.53;5008865;28;20423;-88
2022/04/13 10:16:36;;;;;;;65.10;61.97;;;;;;;17.17;42.51;101609.19;5010190;28;20054;-89
2022/04/13 10:19:08;;;;;;;67.68;64.47;;;;;;;17.39;42.39;101601.41;5008798;28;20042;-88
2022/04/13 10:21:46;;;;;;;67.97;64.68;;;;;;;17.51;43.03;101593.41;5002675;28;20439;-88
2022/04/13 10:24:26;;;;;;;49.72;47.15;;;;;;;16.11;45.57;101590.84;5007185;28;20092;-88
2022/04/13 10:27:06;;;;;;;52.33;49.58;;;;;;;15.64;44.84;101596.56;4995791;28;20534;-89
2022/04/13 10:29:39;;;;;;;48.30;45.95;;;;;;;14.87;49.01;101591.28;5006803;28;20112;-89
2022/04/13 10:32:08;;;;;;;48.17;45.65;;;;;;;16.55;43.53;101592.44;4999747;28;20050;-88
2022/04/13 10:34:50;;;;;;;48.53;45.83;;;;;;;16.09;47.59;101587.56;5008031;28;20046;-89
2022/04/13 10:37:20;;;;;;;46.40;43.90;;;;;;;14.69;49.00;101582.31;5008032;28;20065;-89
2022/04/13 10:39:52;;;;;;;76.78;73.13;;;;;;;17.24;43.53;101590.28;5003127;28;20115;-89
2022/04/13 10:42:34;;;;;;;61.30;58.30;;;;;;;18.40;43.84;101579.88;5010193;28;20057;-88
2022/04/13 10:45:12;;;;;;;64.97;61.92;;;;;;;18.25;39.73;101576.88;5008125;28;20062;-89
2022/04/13 10:47:47;;;;;;;63.65;60.40;;;;;;;17.88;48.21;101577.09;5006936;28;20054;-89
2022/04/13 10:50:32;;;;;;;58.40;55.45;;;;;;;18.10;40.32;101571.97;5004065;28;20422;-88
2022/04/13 10:53:05;;;;;;;55.22;52.63;;;;;;;16.17;49.96;101572.00;5003030;28;20046;-89
2022/04/13 10:55:38;;;;;;;54.33;51.63;;;;;;;16.11;44.73;101574.75;5008018;28;20045;-90
2022/04/13 10:58:12;;;;;;;52.50;49.75;;;;;;;15.41;46.85;101578.41;5011654;28;20072;-89
2022/04/13 11:00:43;;;;;;;50.20;47.42;;;;;;;14.82;51.42;101583.06;5001580;28;20137;-90
2022/04/13 11:03:12;;;;;;;52.53;49.47;;;;;;;15.61;44.93;101572.06;5014180;28;20049;-89
2022/04/13 11:05:43;;;;;;;51.03;48.40;;;;;;;14.56;48.33;101576.00;5012063;28;20053;-89
2022/04/13 11:08:22;;;;;;;42.28;39.78;;;;;;;15.69;47.05;101577.19;5002355;28;20053;-89
2022/04/13 11:11:00;;;;;;;41.97;39.55;;;;;;;15.32;45.90;101571.69;5001549;28;20050;-90
2022/04/13 11:13:33;;;;;;;43.35;41.15;;;;;;;18.38;40.16;101571.22;5001124;28;20051;-89
2022/04/13 11:16:15;;;;;;;42.08;39.80;;;;;;;19.51;40.53;101565.25;5007905;28;20054;-88
2022/04/13 11:19:21;;;;;;;44.50;42.40;;;;;;;15.87;42.56;101560.34;5011535;28;20050;-87